sensor_id;sensor_type;location;lat;lon;timestamp;P1;durP1;ratioP1;P2;durP2;ratioP2
76593;SDS011;65482;50.240;14.302;2023-01-08T00:00:46;59.65;;;29.80;;
76593;SDS011;65482;50.240;14.302;2023-01-08T00:03:32;61.88;;;29.98;;
76593;SDS011;65482;50.240;14.302;2023-01-08T00:06:01;57.55;;;29.48;;
76593;SDS011;65482;50.240;14.302;2023-01-08T00:08:28;61.22;;;31.10;;
76593;SDS011;65482;50.240;14.302;2023-01-08T00:10:55;59.92;;;31.08;;
76593;SDS011;65482;50.240;14.302;2023-01-08T00:13:21;63.88;;;31.67;;
76593;SDS011;65482;50.240;14.302;2023-01-08T00:15:47;63.40;;;30.83;;
76593;SDS011;65482;50.240;14.302;2023-01-08T00:18:12;61.97;;;30.17;;
76593;SDS011;65482;50.240;14.302;2023-01-08T00:20:42;58.45;;;29.58;;
76593;SDS011;65482;50.240;14.302;2023-01-08T00:23:10;67.70;;;31.38;;
76593;SDS011;65482;50.240;14.302;2023-01-08T00:25:37;58.72;;;30.52;;
76593;SDS011;65482;50.240;14.302;2023-01-08T00:28:02;60.35;;;31.65;;
76593;SDS011;65482;50.240;14.302;2023-01-08T00:30:28;64.03;;;32.25;;
76593;SDS011;65482;50.240;14.302;2023-01-08T00:32:54;63.42;;;31.05;;
76593;SDS011;65482;50.240;14.302;2023-01-08T00:35:19;62.97;;;31.63;;
76593;SDS011;65482;50.240;14.302;2023-01-08T00:37:47;60.90;;;30.88;;
76593;SDS011;65482;50.240;14.302;2023-01-08T00:40:13;59.55;;;31.23;;
76593;SDS011;65482;50.240;14.302;2023-01-08T00:42:39;63.10;;;31.42;;
76593;SDS011;65482;50.240;14.302;2023-01-08T00:45:05;63.55;;;31.58;;
76593;SDS011;65482;50.240;14.302;2023-01-08T00:47:31;53.47;;;27.83;;
76593;SDS011;65482;50.240;14.302;2023-01-08T00:49:57;54.03;;;29.48;;
76593;SDS011;65482;50.240;14.302;2023-01-08T00:52:23;56.75;;;30.17;;
76593;SDS011;65482;50.240;14.302;2023-01-08T00:54:49;52.05;;;26.75;;
76593;SDS011;65482;50.240;14.302;2023-01-08T00:57:14;51.25;;;27.02;;
76593;SDS011;65482;50.240;14.302;2023-01-08T00:59:40;50.03;;;26.80;;
76593;SDS011;65482;50.240;14.302;2023-01-08T01:02:05;51.88;;;28.00;;
76593;SDS011;65482;50.240;14.302;2023-01-08T01:04:32;53.38;;;26.38;;
76593;SDS011;65482;50.240;14.302;2023-01-08T01:06:57;56.00;;;28.83;;
76593;SDS011;65482;50.240;14.302;2023-01-08T01:09:23;50.00;;;26.42;;
76593;SDS011;65482;50.240;14.302;2023-01-08T01:11:49;52.65;;;26.67;;
76593;SDS011;65482;50.240;14.302;2023-01-08T01:14:15;52.20;;;26.92;;
76593;SDS011;65482;50.240;14.302;2023-01-08T01:16:40;51.10;;;27.23;;
76593;SDS011;65482;50.240;14.302;2023-01-08T01:19:07;52.60;;;27.13;;
76593;SDS011;65482;50.240;14.302;2023-01-08T01:21:33;51.65;;;26.33;;
76593;SDS011;65482;50.240;14.302;2023-01-08T01:24:01;52.60;;;26.15;;
76593;SDS011;65482;50.240;14.302;2023-01-08T01:26:29;58.78;;;27.98;;
76593;SDS011;65482;50.240;14.302;2023-01-08T01:28:56;50.42;;;25.67;;
76593;SDS011;65482;50.240;14.302;2023-01-08T01:31:23;54.65;;;26.13;;
76593;SDS011;65482;50.240;14.302;2023-01-08T01:33:50;59.15;;;27.58;;
76593;SDS011;65482;50.240;14.302;2023-01-08T01:36:16;58.33;;;27.25;;
76593;SDS011;65482;50.240;14.302;2023-01-08T01:38:44;56.10;;;27.45;;
76593;SDS011;65482;50.240;14.302;2023-01-08T01:47:26;55.58;;;26.25;;
76593;SDS011;65482;50.240;14.302;2023-01-08T01:52:26;63.28;;;27.05;;
76593;SDS011;65482;50.240;14.302;2023-01-08T01:54:55;53.45;;;25.05;;
76593;SDS011;65482;50.240;14.302;2023-01-08T01:57:23;57.25;;;26.40;;
76593;SDS011;65482;50.240;14.302;2023-01-08T01:59:51;54.40;;;26.38;;
76593;SDS011;65482;50.240;14.302;2023-01-08T02:02:17;53.58;;;26.20;;
76593;SDS011;65482;50.240;14.302;2023-01-08T02:04:43;49.25;;;25.52;;
76593;SDS011;65482;50.240;14.302;2023-01-08T02:07:12;57.10;;;25.95;;
76593;SDS011;65482;50.240;14.302;2023-01-08T02:12:27;60.70;;;28.80;;
76593;SDS011;65482;50.240;14.302;2023-01-08T02:15:14;59.70;;;28.05;;
76593;SDS011;65482;50.240;14.302;2023-01-08T02:28:29;52.53;;;24.98;;
76593;SDS011;65482;50.240;14.302;2023-01-08T02:30:58;55.38;;;25.98;;
76593;SDS011;65482;50.240;14.302;2023-01-08T02:33:26;53.97;;;25.35;;
76593;SDS011;65482;50.240;14.302;2023-01-08T02:36:27;51.75;;;25.67;;
76593;SDS011;65482;50.240;14.302;2023-01-08T02:42:01;55.50;;;23.88;;
76593;SDS011;65482;50.240;14.302;2023-01-08T02:47:44;46.00;;;20.80;;
76593;SDS011;65482;50.240;14.302;2023-01-08T02:52:57;45.90;;;24.30;;
76593;SDS011;65482;50.240;14.302;2023-01-08T02:55:24;43.63;;;21.83;;
76593;SDS011;65482;50.240;14.302;2023-01-08T02:57:52;42.08;;;21.42;;
76593;SDS011;65482;50.240;14.302;2023-01-08T03:00:19;53.40;;;24.58;;
76593;SDS011;65482;50.240;14.302;2023-01-08T03:02:46;44.03;;;22.02;;
76593;SDS011;65482;50.240;14.302;2023-01-08T03:05:20;38.10;;;21.00;;
76593;SDS011;65482;50.240;14.302;2023-01-08T03:10:15;44.33;;;20.27;;
76593;SDS011;65482;50.240;14.302;2023-01-08T03:12:47;49.15;;;22.80;;
76593;SDS011;65482;50.240;14.302;2023-01-08T03:15:21;47.90;;;22.95;;
76593;SDS011;65482;50.240;14.302;2023-01-08T03:17:53;40.25;;;20.65;;
76593;SDS011;65482;50.240;14.302;2023-01-08T03:20:23;37.47;;;18.88;;
76593;SDS011;65482;50.240;14.302;2023-01-08T03:22:50;39.55;;;18.13;;
76593;SDS011;65482;50.240;14.302;2023-01-08T03:25:19;44.65;;;21.88;;
76593;SDS011;65482;50.240;14.302;2023-01-08T03:27:51;40.88;;;21.25;;
76593;SDS011;65482;50.240;14.302;2023-01-08T03:30:20;34.53;;;17.45;;
76593;SDS011;65482;50.240;14.302;2023-01-08T03:32:47;37.60;;;17.98;;
76593;SDS011;65482;50.240;14.302;2023-01-08T03:35:16;34.65;;;17.50;;
76593;SDS011;65482;50.240;14.302;2023-01-08T03:37:45;33.10;;;17.33;;
76593;SDS011;65482;50.240;14.302;2023-01-08T03:40:19;33.80;;;17.85;;
76593;SDS011;65482;50.240;14.302;2023-01-08T03:42:48;33.40;;;17.30;;
76593;SDS011;65482;50.240;14.302;2023-01-08T03:45:14;35.22;;;17.38;;
76593;SDS011;65482;50.240;14.302;2023-01-08T03:47:39;32.30;;;17.90;;
76593;SDS011;65482;50.240;14.302;2023-01-08T03:50:10;34.38;;;18.30;;
76593;SDS011;65482;50.240;14.302;2023-01-08T03:52:41;32.47;;;18.23;;
76593;SDS011;65482;50.240;14.302;2023-01-08T03:55:06;31.70;;;17.90;;
76593;SDS011;65482;50.240;14.302;2023-01-08T03:57:32;34.85;;;18.08;;
76593;SDS011;65482;50.240;14.302;2023-01-08T03:59:57;31.23;;;17.15;;
76593;SDS011;65482;50.240;14.302;2023-01-08T04:02:23;31.27;;;17.15;;
76593;SDS011;65482;50.240;14.302;2023-01-08T04:04:49;30.90;;;17.33;;
76593;SDS011;65482;50.240;14.302;2023-01-08T04:07:15;33.85;;;17.88;;
76593;SDS011;65482;50.240;14.302;2023-01-08T04:09:40;29.27;;;16.73;;
76593;SDS011;65482;50.240;14.302;2023-01-08T04:12:06;33.85;;;17.73;;
76593;SDS011;65482;50.240;14.302;2023-01-08T04:14:32;33.42;;;18.60;;
76593;SDS011;65482;50.240;14.302;2023-01-08T04:16:57;35.38;;;19.23;;
76593;SDS011;65482;50.240;14.302;2023-01-08T04:19:23;33.22;;;17.95;;
76593;SDS011;65482;50.240;14.302;2023-01-08T04:21:49;33.40;;;18.85;;
76593;SDS011;65482;50.240;14.302;2023-01-08T04:24:16;31.58;;;18.25;;
76593;SDS011;65482;50.240;14.302;2023-01-08T04:26:42;36.90;;;19.98;;
76593;SDS011;65482;50.240;14.302;2023-01-08T04:29:08;33.38;;;17.95;;
76593;SDS011;65482;50.240;14.302;2023-01-08T04:31:34;36.75;;;19.73;;
76593;SDS011;65482;50.240;14.302;2023-01-08T04:33:59;29.95;;;18.33;;
76593;SDS011;65482;50.240;14.302;2023-01-08T04:36:25;39.97;;;20.23;;
76593;SDS011;65482;50.240;14.302;2023-01-08T04:38:51;35.70;;;19.20;;
76593;SDS011;65482;50.240;14.302;2023-01-08T04:41:16;32.70;;;18.85;;
76593;SDS011;65482;50.240;14.302;2023-01-08T04:43:42;34.55;;;18.30;;
76593;SDS011;65482;50.240;14.302;2023-01-08T04:46:08;31.08;;;18.02;;
76593;SDS011;65482;50.240;14.302;2023-01-08T04:48:34;30.40;;;17.38;;
76593;SDS011;65482;50.240;14.302;2023-01-08T04:51:01;32.08;;;17.95;;
76593;SDS011;65482;50.240;14.302;2023-01-08T04:53:28;30.58;;;17.65;;
76593;SDS011;65482;50.240;14.302;2023-01-08T04:55:54;30.48;;;17.65;;
76593;SDS011;65482;50.240;14.302;2023-01-08T04:58:20;32.22;;;18.42;;
76593;SDS011;65482;50.240;14.302;2023-01-08T05:00:46;30.38;;;17.95;;
76593;SDS011;65482;50.240;14.302;2023-01-08T05:03:11;31.00;;;17.50;;
76593;SDS011;65482;50.240;14.302;2023-01-08T05:05:38;32.50;;;17.73;;
76593;SDS011;65482;50.240;14.302;2023-01-08T05:08:03;29.38;;;17.85;;
76593;SDS011;65482;50.240;14.302;2023-01-08T05:10:29;32.95;;;18.42;;
76593;SDS011;65482;50.240;14.302;2023-01-08T05:12:58;33.17;;;18.65;;
76593;SDS011;65482;50.240;14.302;2023-01-08T05:15:25;34.05;;;18.38;;
76593;SDS011;65482;50.240;14.302;2023-01-08T05:17:57;31.58;;;17.65;;
76593;SDS011;65482;50.240;14.302;2023-01-08T05:20:24;35.75;;;18.63;;
76593;SDS011;65482;50.240;14.302;2023-01-08T05:22:49;32.95;;;18.33;;
76593;SDS011;65482;50.240;14.302;2023-01-08T05:25:15;34.95;;;19.70;;
76593;SDS011;65482;50.240;14.302;2023-01-08T05:27:41;31.42;;;18.55;;
76593;SDS011;65482;50.240;14.302;2023-01-08T05:30:07;31.98;;;17.90;;
76593;SDS011;65482;50.240;14.302;2023-01-08T05:32:33;29.35;;;16.67;;
76593;SDS011;65482;50.240;14.302;2023-01-08T05:34:59;30.67;;;17.17;;
76593;SDS011;65482;50.240;14.302;2023-01-08T05:37:24;30.10;;;17.65;;
76593;SDS011;65482;50.240;14.302;2023-01-08T05:39:50;30.05;;;17.88;;
76593;SDS011;65482;50.240;14.302;2023-01-08T05:42:15;31.95;;;17.67;;
76593;SDS011;65482;50.240;14.302;2023-01-08T05:44:41;32.92;;;18.02;;
76593;SDS011;65482;50.240;14.302;2023-01-08T05:47:07;33.38;;;18.00;;
76593;SDS011;65482;50.240;14.302;2023-01-08T05:49:32;31.58;;;17.25;;
76593;SDS011;65482;50.240;14.302;2023-01-08T05:51:58;30.83;;;17.80;;
76593;SDS011;65482;50.240;14.302;2023-01-08T05:54:24;33.10;;;18.38;;
76593;SDS011;65482;50.240;14.302;2023-01-08T05:56:49;32.08;;;17.67;;
76593;SDS011;65482;50.240;14.302;2023-01-08T05:59:15;26.13;;;16.52;;
76593;SDS011;65482;50.240;14.302;2023-01-08T06:01:40;27.90;;;16.27;;
76593;SDS011;65482;50.240;14.302;2023-01-08T06:04:06;30.95;;;17.02;;
76593;SDS011;65482;50.240;14.302;2023-01-08T06:06:32;29.10;;;17.52;;
76593;SDS011;65482;50.240;14.302;2023-01-08T06:08:58;34.03;;;17.52;;
76593;SDS011;65482;50.240;14.302;2023-01-08T06:11:23;34.33;;;17.73;;
76593;SDS011;65482;50.240;14.302;2023-01-08T06:13:49;31.35;;;17.40;;
76593;SDS011;65482;50.240;14.302;2023-01-08T06:16:14;30.48;;;16.83;;
76593;SDS011;65482;50.240;14.302;2023-01-08T06:18:42;28.10;;;15.73;;
76593;SDS011;65482;50.240;14.302;2023-01-08T06:21:08;25.55;;;14.85;;
76593;SDS011;65482;50.240;14.302;2023-01-08T06:23:34;29.58;;;16.27;;
76593;SDS011;65482;50.240;14.302;2023-01-08T06:25:59;27.02;;;15.50;;
76593;SDS011;65482;50.240;14.302;2023-01-08T06:28:26;27.65;;;15.23;;
76593;SDS011;65482;50.240;14.302;2023-01-08T06:30:52;25.75;;;15.18;;
76593;SDS011;65482;50.240;14.302;2023-01-08T06:33:18;25.17;;;15.07;;
76593;SDS011;65482;50.240;14.302;2023-01-08T06:35:44;26.77;;;16.23;;
76593;SDS011;65482;50.240;14.302;2023-01-08T06:38:10;22.63;;;12.63;;
76593;SDS011;65482;50.240;14.302;2023-01-08T06:40:36;19.75;;;12.13;;
76593;SDS011;65482;50.240;14.302;2023-01-08T06:43:05;22.48;;;12.40;;
76593;SDS011;65482;50.240;14.302;2023-01-08T06:45:30;20.23;;;12.23;;
76593;SDS011;65482;50.240;14.302;2023-01-08T06:48:04;20.17;;;12.02;;
76593;SDS011;65482;50.240;14.302;2023-01-08T06:50:30;22.77;;;12.77;;
76593;SDS011;65482;50.240;14.302;2023-01-08T06:52:57;19.15;;;11.45;;
76593;SDS011;65482;50.240;14.302;2023-01-08T06:55:23;22.67;;;11.85;;
76593;SDS011;65482;50.240;14.302;2023-01-08T06:57:56;18.30;;;10.75;;
76593;SDS011;65482;50.240;14.302;2023-01-08T07:00:23;20.95;;;11.23;;
76593;SDS011;65482;50.240;14.302;2023-01-08T07:02:51;18.30;;;10.95;;
76593;SDS011;65482;50.240;14.302;2023-01-08T07:05:18;16.98;;;10.80;;
76593;SDS011;65482;50.240;14.302;2023-01-08T07:07:44;19.02;;;10.93;;
76593;SDS011;65482;50.240;14.302;2023-01-08T07:10:10;20.00;;;11.05;;
76593;SDS011;65482;50.240;14.302;2023-01-08T07:12:36;18.08;;;11.05;;
76593;SDS011;65482;50.240;14.302;2023-01-08T07:15:01;18.08;;;10.38;;
76593;SDS011;65482;50.240;14.302;2023-01-08T07:17:28;16.73;;;11.20;;
76593;SDS011;65482;50.240;14.302;2023-01-08T07:19:53;16.48;;;10.88;;
76593;SDS011;65482;50.240;14.302;2023-01-08T07:22:19;19.00;;;10.68;;
76593;SDS011;65482;50.240;14.302;2023-01-08T07:24:46;17.67;;;10.45;;
76593;SDS011;65482;50.240;14.302;2023-01-08T07:27:12;17.20;;;10.45;;
76593;SDS011;65482;50.240;14.302;2023-01-08T07:29:37;16.05;;;9.80;;
76593;SDS011;65482;50.240;14.302;2023-01-08T07:32:03;18.50;;;10.18;;
76593;SDS011;65482;50.240;14.302;2023-01-08T07:34:29;17.50;;;10.65;;
76593;SDS011;65482;50.240;14.302;2023-01-08T07:36:55;16.05;;;10.38;;
76593;SDS011;65482;50.240;14.302;2023-01-08T07:39:21;16.67;;;10.15;;
76593;SDS011;65482;50.240;14.302;2023-01-08T07:41:47;16.60;;;10.25;;
76593;SDS011;65482;50.240;14.302;2023-01-08T07:44:12;16.33;;;10.70;;
76593;SDS011;65482;50.240;14.302;2023-01-08T07:46:38;17.73;;;10.98;;
76593;SDS011;65482;50.240;14.302;2023-01-08T07:49:03;17.95;;;10.55;;
76593;SDS011;65482;50.240;14.302;2023-01-08T07:51:30;22.05;;;12.38;;
76593;SDS011;65482;50.240;14.302;2023-01-08T07:53:56;23.50;;;12.98;;
76593;SDS011;65482;50.240;14.302;2023-01-08T07:56:22;22.08;;;12.68;;
76593;SDS011;65482;50.240;14.302;2023-01-08T07:58:49;22.10;;;12.32;;
76593;SDS011;65482;50.240;14.302;2023-01-08T08:01:15;20.48;;;11.85;;
76593;SDS011;65482;50.240;14.302;2023-01-08T08:03:41;16.83;;;11.63;;
76593;SDS011;65482;50.240;14.302;2023-01-08T08:06:07;17.13;;;10.82;;
76593;SDS011;65482;50.240;14.302;2023-01-08T08:08:33;19.05;;;10.75;;
76593;SDS011;65482;50.240;14.302;2023-01-08T08:11:00;18.70;;;11.27;;
76593;SDS011;65482;50.240;14.302;2023-01-08T08:13:26;20.00;;;10.95;;
76593;SDS011;65482;50.240;14.302;2023-01-08T08:15:52;17.40;;;10.55;;
76593;SDS011;65482;50.240;14.302;2023-01-08T08:18:18;19.20;;;10.82;;
76593;SDS011;65482;50.240;14.302;2023-01-08T08:20:44;18.33;;;11.30;;
76593;SDS011;65482;50.240;14.302;2023-01-08T08:23:11;18.38;;;10.93;;
76593;SDS011;65482;50.240;14.302;2023-01-08T08:25:39;15.88;;;10.48;;
76593;SDS011;65482;50.240;14.302;2023-01-08T08:28:06;17.10;;;10.57;;
76593;SDS011;65482;50.240;14.302;2023-01-08T08:30:34;16.42;;;11.07;;
76593;SDS011;65482;50.240;14.302;2023-01-08T08:33:00;18.15;;;10.68;;
76593;SDS011;65482;50.240;14.302;2023-01-08T08:35:28;16.63;;;10.65;;
76593;SDS011;65482;50.240;14.302;2023-01-08T08:37:55;18.35;;;11.63;;
76593;SDS011;65482;50.240;14.302;2023-01-08T08:40:21;17.17;;;11.13;;
76593;SDS011;65482;50.240;14.302;2023-01-08T08:42:47;17.85;;;10.95;;
76593;SDS011;65482;50.240;14.302;2023-01-08T08:45:13;18.42;;;10.98;;
76593;SDS011;65482;50.240;14.302;2023-01-08T08:47:39;18.15;;;10.60;;
76593;SDS011;65482;50.240;14.302;2023-01-08T08:50:05;17.63;;;10.95;;
76593;SDS011;65482;50.240;14.302;2023-01-08T08:52:31;17.33;;;11.07;;
76593;SDS011;65482;50.240;14.302;2023-01-08T08:54:58;18.70;;;11.35;;
76593;SDS011;65482;50.240;14.302;2023-01-08T08:57:24;20.17;;;11.60;;
76593;SDS011;65482;50.240;14.302;2023-01-08T08:59:51;16.83;;;11.32;;
76593;SDS011;65482;50.240;14.302;2023-01-08T09:02:17;20.58;;;12.35;;
76593;SDS011;65482;50.240;14.302;2023-01-08T09:04:43;18.98;;;12.00;;
76593;SDS011;65482;50.240;14.302;2023-01-08T09:07:09;18.48;;;10.90;;
76593;SDS011;65482;50.240;14.302;2023-01-08T09:09:35;19.63;;;11.35;;
76593;SDS011;65482;50.240;14.302;2023-01-08T09:12:00;19.40;;;12.15;;
76593;SDS011;65482;50.240;14.302;2023-01-08T09:14:26;17.92;;;11.30;;
76593;SDS011;65482;50.240;14.302;2023-01-08T09:16:52;16.50;;;10.77;;
76593;SDS011;65482;50.240;14.302;2023-01-08T09:19:18;17.25;;;11.20;;
76593;SDS011;65482;50.240;14.302;2023-01-08T09:21:43;18.40;;;11.63;;
76593;SDS011;65482;50.240;14.302;2023-01-08T09:24:09;16.15;;;10.27;;
76593;SDS011;65482;50.240;14.302;2023-01-08T09:26:35;17.25;;;10.88;;
76593;SDS011;65482;50.240;14.302;2023-01-08T09:29:01;17.83;;;10.80;;
76593;SDS011;65482;50.240;14.302;2023-01-08T09:31:27;16.90;;;10.50;;
76593;SDS011;65482;50.240;14.302;2023-01-08T09:33:53;16.05;;;10.32;;
76593;SDS011;65482;50.240;14.302;2023-01-08T09:36:18;17.33;;;10.40;;
76593;SDS011;65482;50.240;14.302;2023-01-08T09:38:44;15.50;;;9.85;;
76593;SDS011;65482;50.240;14.302;2023-01-08T09:44:00;14.50;;;9.55;;
76593;SDS011;65482;50.240;14.302;2023-01-08T09:46:28;14.93;;;9.48;;
76593;SDS011;65482;50.240;14.302;2023-01-08T09:48:59;17.30;;;10.00;;
76593;SDS011;65482;50.240;14.302;2023-01-08T09:51:35;17.13;;;10.43;;
76593;SDS011;65482;50.240;14.302;2023-01-08T09:54:03;14.65;;;9.82;;
76593;SDS011;65482;50.240;14.302;2023-01-08T09:56:34;14.80;;;9.18;;
76593;SDS011;65482;50.240;14.302;2023-01-08T09:59:02;16.48;;;10.40;;
76593;SDS011;65482;50.240;14.302;2023-01-08T10:01:29;16.83;;;10.32;;
76593;SDS011;65482;50.240;14.302;2023-01-08T10:04:21;15.88;;;10.02;;
76593;SDS011;65482;50.240;14.302;2023-01-08T10:07:07;18.20;;;10.18;;
76593;SDS011;65482;50.240;14.302;2023-01-08T10:09:46;16.67;;;9.98;;
76593;SDS011;65482;50.240;14.302;2023-01-08T10:12:13;15.48;;;10.02;;
76593;SDS011;65482;50.240;14.302;2023-01-08T10:14:40;19.02;;;11.45;;
76593;SDS011;65482;50.240;14.302;2023-01-08T10:19:54;16.67;;;10.52;;
76593;SDS011;65482;50.240;14.302;2023-01-08T10:22:21;17.33;;;10.55;;
76593;SDS011;65482;50.240;14.302;2023-01-08T10:24:49;14.63;;;9.73;;
76593;SDS011;65482;50.240;14.302;2023-01-08T10:27:16;16.83;;;9.63;;
76593;SDS011;65482;50.240;14.302;2023-01-08T10:29:45;17.33;;;9.98;;
76593;SDS011;65482;50.240;14.302;2023-01-08T10:32:30;16.38;;;10.02;;
76593;SDS011;65482;50.240;14.302;2023-01-08T10:35:02;15.70;;;9.93;;
76593;SDS011;65482;50.240;14.302;2023-01-08T10:40:22;15.50;;;10.00;;
76593;SDS011;65482;50.240;14.302;2023-01-08T10:42:53;15.40;;;10.13;;
76593;SDS011;65482;50.240;14.302;2023-01-08T10:45:22;16.08;;;10.20;;
76593;SDS011;65482;50.240;14.302;2023-01-08T10:47:51;15.63;;;10.35;;
76593;SDS011;65482;50.240;14.302;2023-01-08T10:50:23;19.85;;;10.13;;
76593;SDS011;65482;50.240;14.302;2023-01-08T10:52:56;17.65;;;10.68;;
76593;SDS011;65482;50.240;14.302;2023-01-08T10:55:28;17.08;;;10.48;;
76593;SDS011;65482;50.240;14.302;2023-01-08T10:57:57;17.23;;;10.13;;
76593;SDS011;65482;50.240;14.302;2023-01-08T11:00:29;16.58;;;9.95;;
76593;SDS011;65482;50.240;14.302;2023-01-08T11:03:00;15.75;;;10.15;;
76593;SDS011;65482;50.240;14.302;2023-01-08T11:05:31;15.90;;;9.00;;
76593;SDS011;65482;50.240;14.302;2023-01-08T11:07:59;15.38;;;9.38;;
76593;SDS011;65482;50.240;14.302;2023-01-08T11:10:27;14.63;;;9.30;;
76593;SDS011;65482;50.240;14.302;2023-01-08T11:13:04;15.85;;;9.75;;
76593;SDS011;65482;50.240;14.302;2023-01-08T11:15:36;14.50;;;9.23;;
76593;SDS011;65482;50.240;14.302;2023-01-08T11:18:03;14.13;;;9.98;;
76593;SDS011;65482;50.240;14.302;2023-01-08T11:20:50;14.80;;;9.35;;
76593;SDS011;65482;50.240;14.302;2023-01-08T11:23:18;15.93;;;9.95;;
76593;SDS011;65482;50.240;14.302;2023-01-08T11:25:49;15.63;;;9.10;;
76593;SDS011;65482;50.240;14.302;2023-01-08T11:28:21;14.38;;;9.07;;
76593;SDS011;65482;50.240;14.302;2023-01-08T11:30:58;15.40;;;9.30;;
76593;SDS011;65482;50.240;14.302;2023-01-08T11:33:37;15.95;;;9.15;;
76593;SDS011;65482;50.240;14.302;2023-01-08T11:36:10;13.63;;;8.75;;
76593;SDS011;65482;50.240;14.302;2023-01-08T11:38:59;14.82;;;9.18;;
76593;SDS011;65482;50.240;14.302;2023-01-08T11:47:00;13.32;;;8.63;;
76593;SDS011;65482;50.240;14.302;2023-01-08T11:49:38;14.98;;;8.82;;
76593;SDS011;65482;50.240;14.302;2023-01-08T11:55:36;13.90;;;8.90;;
76593;SDS011;65482;50.240;14.302;2023-01-08T12:01:02;17.58;;;9.77;;
76593;SDS011;65482;50.240;14.302;2023-01-08T12:04:16;15.48;;;8.93;;
76593;SDS011;65482;50.240;14.302;2023-01-08T12:10:00;14.38;;;8.90;;
76593;SDS011;65482;50.240;14.302;2023-01-08T12:21:43;14.55;;;9.20;;
76593;SDS011;65482;50.240;14.302;2023-01-08T12:24:21;15.35;;;9.77;;
76593;SDS011;65482;50.240;14.302;2023-01-08T12:29:55;16.77;;;9.50;;
76593;SDS011;65482;50.240;14.302;2023-01-08T12:32:36;16.30;;;9.55;;
76593;SDS011;65482;50.240;14.302;2023-01-08T12:35:33;14.90;;;9.10;;
76593;SDS011;65482;50.240;14.302;2023-01-08T12:38:15;14.95;;;9.10;;
76593;SDS011;65482;50.240;14.302;2023-01-08T12:40:46;14.00;;;8.88;;
76593;SDS011;65482;50.240;14.302;2023-01-08T12:43:25;13.65;;;9.02;;
76593;SDS011;65482;50.240;14.302;2023-01-08T12:45:56;13.75;;;8.88;;
76593;SDS011;65482;50.240;14.302;2023-01-08T12:48:26;15.40;;;9.32;;
76593;SDS011;65482;50.240;14.302;2023-01-08T12:53:34;18.25;;;9.63;;
76593;SDS011;65482;50.240;14.302;2023-01-08T12:56:10;15.82;;;9.77;;
76593;SDS011;65482;50.240;14.302;2023-01-08T13:04:03;16.02;;;9.07;;
76593;SDS011;65482;50.240;14.302;2023-01-08T13:06:31;16.33;;;9.27;;
76593;SDS011;65482;50.240;14.302;2023-01-08T13:08:57;15.02;;;8.90;;
76593;SDS011;65482;50.240;14.302;2023-01-08T13:11:30;14.05;;;9.00;;
76593;SDS011;65482;50.240;14.302;2023-01-08T13:16:26;15.40;;;8.55;;
76593;SDS011;65482;50.240;14.302;2023-01-08T13:18:59;15.25;;;9.13;;
76593;SDS011;65482;50.240;14.302;2023-01-08T13:24:33;14.65;;;8.57;;
76593;SDS011;65482;50.240;14.302;2023-01-08T13:29:40;15.02;;;8.80;;
76593;SDS011;65482;50.240;14.302;2023-01-08T13:37:44;16.95;;;9.60;;
76593;SDS011;65482;50.240;14.302;2023-01-08T13:43:25;16.58;;;9.95;;
76593;SDS011;65482;50.240;14.302;2023-01-08T13:48:28;20.52;;;10.10;;
76593;SDS011;65482;50.240;14.302;2023-01-08T13:50:58;18.13;;;10.13;;
76593;SDS011;65482;50.240;14.302;2023-01-08T13:53:24;15.85;;;9.63;;
76593;SDS011;65482;50.240;14.302;2023-01-08T13:55:57;18.08;;;10.43;;
76593;SDS011;65482;50.240;14.302;2023-01-08T13:58:45;15.85;;;10.32;;
76593;SDS011;65482;50.240;14.302;2023-01-08T14:01:18;16.73;;;10.25;;
76593;SDS011;65482;50.240;14.302;2023-01-08T14:03:46;17.08;;;10.40;;
76593;SDS011;65482;50.240;14.302;2023-01-08T14:06:17;17.15;;;10.05;;
76593;SDS011;65482;50.240;14.302;2023-01-08T14:08:48;16.42;;;9.55;;
76593;SDS011;65482;50.240;14.302;2023-01-08T14:11:17;16.45;;;9.80;;
76593;SDS011;65482;50.240;14.302;2023-01-08T14:13:44;15.75;;;9.27;;
76593;SDS011;65482;50.240;14.302;2023-01-08T14:16:26;18.15;;;10.35;;
76593;SDS011;65482;50.240;14.302;2023-01-08T14:18:58;18.13;;;10.35;;
76593;SDS011;65482;50.240;14.302;2023-01-08T14:21:25;18.95;;;10.52;;
76593;SDS011;65482;50.240;14.302;2023-01-08T14:23:52;17.20;;;9.98;;
76593;SDS011;65482;50.240;14.302;2023-01-08T14:29:13;17.30;;;10.43;;
76593;SDS011;65482;50.240;14.302;2023-01-08T14:31:47;17.13;;;10.00;;
76593;SDS011;65482;50.240;14.302;2023-01-08T14:34:18;19.20;;;10.73;;
76593;SDS011;65482;50.240;14.302;2023-01-08T14:36:45;16.80;;;9.70;;
76593;SDS011;65482;50.240;14.302;2023-01-08T14:39:33;19.48;;;10.80;;
76593;SDS011;65482;50.240;14.302;2023-01-08T14:42:07;19.23;;;10.48;;
76593;SDS011;65482;50.240;14.302;2023-01-08T14:44:57;17.20;;;9.88;;
76593;SDS011;65482;50.240;14.302;2023-01-08T14:47:32;17.92;;;10.93;;
76593;SDS011;65482;50.240;14.302;2023-01-08T14:50:04;15.73;;;10.05;;
76593;SDS011;65482;50.240;14.302;2023-01-08T14:52:31;19.45;;;11.25;;
76593;SDS011;65482;50.240;14.302;2023-01-08T14:54:58;21.67;;;11.02;;
76593;SDS011;65482;50.240;14.302;2023-01-08T14:57:27;21.80;;;11.80;;
76593;SDS011;65482;50.240;14.302;2023-01-08T14:59:55;19.30;;;10.50;;
76593;SDS011;65482;50.240;14.302;2023-01-08T15:02:30;18.80;;;10.13;;
76593;SDS011;65482;50.240;14.302;2023-01-08T15:05:12;19.00;;;10.48;;
76593;SDS011;65482;50.240;14.302;2023-01-08T15:07:53;20.27;;;10.82;;
76593;SDS011;65482;50.240;14.302;2023-01-08T15:13:00;16.88;;;10.35;;
76593;SDS011;65482;50.240;14.302;2023-01-08T15:15:28;19.95;;;11.00;;
76593;SDS011;65482;50.240;14.302;2023-01-08T15:17:56;17.63;;;10.68;;
76593;SDS011;65482;50.240;14.302;2023-01-08T15:20:24;19.75;;;11.45;;
76593;SDS011;65482;50.240;14.302;2023-01-08T15:22:54;15.38;;;9.35;;
76593;SDS011;65482;50.240;14.302;2023-01-08T15:25:30;17.90;;;10.65;;
76593;SDS011;65482;50.240;14.302;2023-01-08T15:28:00;16.80;;;10.55;;
76593;SDS011;65482;50.240;14.302;2023-01-08T15:30:38;15.65;;;9.63;;
76593;SDS011;65482;50.240;14.302;2023-01-08T15:33:19;22.65;;;10.93;;
76593;SDS011;65482;50.240;14.302;2023-01-08T15:35:47;15.27;;;10.40;;
76593;SDS011;65482;50.240;14.302;2023-01-08T15:38:13;16.60;;;10.05;;
76593;SDS011;65482;50.240;14.302;2023-01-08T15:40:40;15.93;;;9.90;;
76593;SDS011;65482;50.240;14.302;2023-01-08T15:43:11;18.05;;;10.15;;
76593;SDS011;65482;50.240;14.302;2023-01-08T15:45:39;16.77;;;10.25;;
76593;SDS011;65482;50.240;14.302;2023-01-08T15:48:06;16.27;;;9.63;;
76593;SDS011;65482;50.240;14.302;2023-01-08T15:50:33;17.65;;;9.85;;
76593;SDS011;65482;50.240;14.302;2023-01-08T15:53:14;17.40;;;10.50;;
76593;SDS011;65482;50.240;14.302;2023-01-08T15:55:43;17.95;;;10.50;;
76593;SDS011;65482;50.240;14.302;2023-01-08T15:58:10;14.93;;;9.57;;
76593;SDS011;65482;50.240;14.302;2023-01-08T16:00:38;16.58;;;9.77;;
76593;SDS011;65482;50.240;14.302;2023-01-08T16:03:04;15.05;;;9.63;;